Time;durP1;ratioP1;P1;durP2;ratioP2;P2;SDS_P1;SDS_P2;PMS_P1;PMS_P2;Temp;Humidity;BMP_temperature;BMP_pressure;BME280_temperature;BME280_humidity;BME280_pressure;Samples;Min_cycle;Max_cycle;Signal;HPM_P1;HPM_P2
2022/05/26 00:01:48;;;;;;;2.80;1.30;;;;;;;-148.88;72.40;75537.56;5036079;28;20032;-83
2022/05/26 00:04:14;;;;;;;9.13;1.80;;;;;;;-148.88;72.36;75547.72;5020069;28;20033;-84
2022/05/26 00:06:49;;;;;;;7.10;1.60;;;;;;;-148.88;72.84;75557.88;5021469;28;20021;-84
2022/05/26 00:09:29;;;;;;;3.08;1.80;;;;;;;-148.88;72.56;75549.75;5021429;28;20026;-83
2022/05/26 00:11:58;;;;;;;4.25;1.83;;;;;;;-148.88;72.75;75555.84;5021202;28;20116;-83
2022/05/26 00:14:34;;;;;;;5.68;1.90;;;;;;;-148.88;72.87;75549.75;5039473;28;20048;-84
2022/05/26 00:17:21;;;;;;;4.97;1.77;;;;;;;-148.88;72.70;75539.59;5022100;28;20021;-83
2022/05/26 00:19:58;;;;;;;4.68;1.70;;;;;;;-148.88;72.57;75539.59;5039097;28;20040;-83
2022/05/26 00:22:26;;;;;;;4.07;1.80;;;;;;;-148.88;72.55;75537.56;5034324;28;20432;-81
2022/05/26 00:24:52;;;;;;;4.30;1.90;;;;;;;-148.88;72.98;75547.72;5035292;28;20025;-82
2022/05/26 00:27:18;;;;;;;5.13;1.75;;;;;;;-148.88;72.59;75537.56;5019016;28;20029;-82
2022/05/26 00:29:43;;;;;;;2.63;1.65;;;;;;;-148.88;72.80;75543.66;5042402;28;20021;-83
2022/05/26 00:32:09;;;;;;;4.70;1.45;;;;;;;-148.88;72.77;75537.56;5040851;28;20040;-83
2022/05/26 00:34:40;;;;;;;5.15;1.90;;;;;;;-148.88;72.61;75533.50;5040401;28;20028;-84
2022/05/26 00:37:18;;;;;;;4.15;1.80;;;;;;;-148.88;72.92;75533.50;5040493;28;20021;-84
2022/05/26 00:39:46;;;;;;;3.20;1.80;;;;;;;-148.88;72.85;75533.50;5021372;28;20038;-85
2022/05/26 00:42:14;;;;;;;4.50;2.00;;;;;;;-148.88;73.25;75537.56;5021337;28;20053;-83
2022/05/26 00:44:42;;;;;;;3.72;1.80;;;;;;;-148.88;72.52;75533.50;5021514;28;20051;-84
2022/05/26 00:47:16;;;;;;;4.82;1.90;;;;;;;-148.88;72.71;75529.44;5038333;28;20482;-83
2022/05/26 00:49:55;;;;;;;3.90;1.80;;;;;;;-148.88;73.29;75541.63;5020568;28;20049;-82
2022/05/26 00:52:28;;;;;;;6.28;2.00;;;;;;;-148.88;73.34;75523.34;5019676;28;20116;-83
2022/05/26 00:55:18;;;;;;;4.93;2.00;;;;;;;-148.88;74.32;75527.41;5037770;28;20489;-84
2022/05/26 00:57:52;;;;;;;4.00;2.03;;;;;;;-148.88;75.04;75541.63;5017969;28;20079;-85
2022/05/26 01:00:26;;;;;;;4.63;2.42;;;;;;;-148.88;75.84;75549.75;5034946;28;20538;-82
2022/05/26 01:03:02;;;;;;;4.03;2.17;;;;;;;-148.88;76.74;75543.66;5018496;28;20044;-83
2022/05/26 01:05:54;;;;;;;3.35;2.10;;;;;;;-148.88;77.50;75559.91;5035466;28;20021;-84
2022/05/26 01:08:47;;;;;;;4.95;2.70;;;;;;;-148.88;78.07;75572.09;5019627;28;20445;-83
2022/05/26 01:11:13;;;;;;;3.95;2.42;;;;;;;-148.88;78.44;75568.03;5019134;28;20572;-84
2022/05/26 01:14:02;;;;;;;3.60;2.50;;;;;;;-148.88;78.86;75568.03;5020828;28;20124;-83
2022/05/26 01:16:37;;;;;;;4.57;2.50;;;;;;;-148.88;79.02;75568.03;5037209;28;20156;-82
2022/05/26 01:20:04;;;;;;;4.78;2.70;;;;;;;-148.88;78.12;75555.84;5037182;28;20439;-84
2022/05/26 01:23:03;;;;;;;9.77;2.60;;;;;;;-148.88;78.32;75561.94;4996614;28;20037;-85
2022/05/26 01:25:50;;;;;;;3.90;2.53;;;;;;;-148.88;77.71;75543.66;5019645;28;20433;-84
2022/05/26 01:28:21;;;;;;;10.02;2.72;;;;;;;-148.88;77.87;75553.81;5020372;28;20022;-83
2022/05/26 01:31:27;;;;;;;7.45;3.00;;;;;;;-148.88;78.04;75553.81;5037471;28;20025;-85
2022/05/26 01:34:11;;;;;;;6.75;2.70;;;;;;;-148.88;77.41;75551.78;5018379;28;20030;-81
2022/05/26 01:36:54;;;;;;;5.43;2.67;;;;;;;-148.88;76.98;75541.63;5016961;28;20025;-83
2022/05/26 01:39:41;;;;;;;4.63;2.60;;;;;;;-148.88;76.72;75541.63;5015981;28;20386;-82
2022/05/26 01:42:29;;;;;;;8.77;3.10;;;;;;;-148.88;76.84;75533.50;5017885;28;20266;-85
2022/05/26 01:45:13;;;;;;;3.80;2.38;;;;;;;-148.88;76.72;75537.56;5018831;28;20025;-84
2022/05/26 01:47:42;;;;;;;5.53;2.53;;;;;;;-148.88;76.60;75529.44;5037499;28;20023;-82
2022/05/26 01:50:38;;;;;;;5.10;2.90;;;;;;;-148.88;76.73;75543.66;5020659;28;20017;-85
2022/05/26 01:53:15;;;;;;;5.40;2.80;;;;;;;-148.88;76.84;75537.56;5018616;28;20187;-85
2022/05/26 01:55:55;;;;;;;5.10;2.90;;;;;;;-148.88;76.75;75541.63;5037041;28;20030;-86
2022/05/26 01:58:35;;;;;;;4.72;2.90;;;;;;;-148.88;76.10;75537.56;5019553;28;20098;-83
2022/05/26 02:01:08;;;;;;;8.05;3.00;;;;;;;-148.88;76.42;75549.75;5018815;28;20048;-82
2022/05/26 02:03:38;;;;;;;4.20;2.70;;;;;;;-148.88;76.84;75551.78;5037678;28;20026;-84
2022/05/26 02:06:17;;;;;;;4.53;2.50;;;;;;;-148.88;76.22;75547.72;5036633;28;20108;-85
2022/05/26 02:08:49;;;;;;;5.78;3.08;;;;;;;-148.88;75.74;75541.63;5021011;28;20036;-85
2022/05/26 02:11:21;;;;;;;8.40;3.03;;;;;;;-148.88;76.09;75535.53;5019011;28;20075;-85
2022/05/26 02:13:55;;;;;;;5.95;2.67;;;;;;;-148.88;76.55;75549.75;5015537;28;20113;-82
2022/05/26 02:16:49;;;;;;;6.65;3.10;;;;;;;-148.88;76.49;75547.72;5016546;28;20120;-85
2022/05/26 02:19:28;;;;;;;5.97;3.10;;;;;;;-148.88;75.85;75537.56;5033805;28;20037;-86
2022/05/26 02:22:34;;;;;;;6.35;3.00;;;;;;;-148.88;75.94;75539.59;5018996;28;20033;-86
2022/05/26 02:25:07;;;;;;;4.70;2.90;;;;;;;-148.88;76.82;75545.69;5018614;28;20030;-86
2022/05/26 02:27:37;;;;;;;6.93;3.13;;;;;;;-148.88;76.54;75547.72;5022742;28;20029;-85
2022/05/26 02:30:05;;;;;;;7.40;3.05;;;;;;;-148.88;76.62;75549.75;5023271;28;20094;-83
2022/05/26 02:32:37;;;;;;;4.97;3.03;;;;;;;-148.88;76.57;75541.63;5023585;28;20048;-86
2022/05/26 02:35:13;;;;;;;4.83;3.03;;;;;;;-148.88;77.50;75557.88;5023668;28;20036;-85
2022/05/26 02:37:41;;;;;;;5.22;3.00;;;;;;;-148.88;78.30;75561.94;5022599;28;20026;-81
2022/05/26 02:40:07;;;;;;;7.05;3.60;;;;;;;-148.88;78.16;75559.91;5040240;28;20026;-85
2022/05/26 02:42:35;;;;;;;6.00;3.17;;;;;;;-148.88;78.20;75555.84;5040311;28;20026;-82
2022/05/26 02:45:01;;;;;;;6.65;3.28;;;;;;;-148.88;78.18;75553.81;5021011;28;20021;-84
2022/05/26 02:47:35;;;;;;;8.05;3.33;;;;;;;-148.88;78.28;75561.94;5037074;28;20025;-82
2022/05/26 02:50:30;;;;;;;6.20;3.72;;;;;;;-148.88;78.56;75568.03;5019838;28;20048;-85
2022/05/26 02:53:18;;;;;;;6.47;3.83;;;;;;;-148.88;78.79;75566.00;5019836;28;20052;-84
2022/05/26 02:55:51;;;;;;;6.22;3.60;;;;;;;-148.88;78.79;75557.88;5036883;28;20017;-82
2022/05/26 02:58:38;;;;;;;6.60;3.90;;;;;;;-148.88;79.54;75570.03;5018927;28;20028;-83
2022/05/26 03:01:13;;;;;;;5.13;3.70;;;;;;;-148.88;80.30;75574.13;5036926;28;20108;-84
2022/05/26 03:03:52;;;;;;;8.50;4.18;;;;;;;-148.88;80.81;75574.13;5036761;28;20021;-84
2022/05/26 03:06:28;;;;;;;6.95;3.97;;;;;;;-148.88;80.94;75580.22;5036784;28;20017;-85
2022/05/26 03:09:04;;;;;;;5.72;3.38;;;;;;;-148.88;80.89;75578.19;5036596;28;20021;-85
2022/05/26 03:11:42;;;;;;;5.68;3.88;;;;;;;-148.88;81.54;75590.34;5018645;28;20029;-85
2022/05/26 03:14:08;;;;;;;9.50;4.28;;;;;;;-148.88;81.98;75582.22;5036942;28;20471;-83
2022/05/26 03:16:33;;;;;;;7.88;4.60;;;;;;;-148.88;81.93;75580.22;5036824;28;20117;-85
2022/05/26 03:19:02;;;;;;;8.75;4.18;;;;;;;-148.88;82.40;75584.25;5018906;28;20025;-82
2022/05/26 03:21:48;;;;;;;7.10;4.28;;;;;;;-148.88;82.32;75578.19;5019292;28;20386;-80
2022/05/26 03:24:14;;;;;;;6.20;4.07;;;;;;;-148.88;82.05;75568.03;5037500;28;20033;-82
2022/05/26 03:26:45;;;;;;;6.72;4.30;;;;;;;-148.88;82.72;75574.13;5037054;28;20029;-80
2022/05/26 03:29:10;;;;;;;5.60;4.30;;;;;;;-148.88;82.80;75580.22;5019126;28;20351;-82
2022/05/26 03:31:36;;;;;;;8.38;4.10;;;;;;;-148.88;82.66;75580.22;5018905;28;20493;-82
2022/05/26 03:42:22;;;;;;;6.82;4.30;;;;;;;-148.88;84.19;75600.50;5036728;28;19916;-81
2022/05/26 03:44:48;;;;;;;8.65;4.47;;;;;;;-148.88;84.09;75594.44;5036221;28;20021;-81
2022/05/26 03:47:14;;;;;;;7.90;4.93;;;;;;;-148.88;84.41;75594.44;5019168;28;20029;-81
2022/05/26 03:49:39;;;;;;;6.53;4.75;;;;;;;-148.88;84.65;75596.44;5019722;28;20068;-81
2022/05/26 03:52:05;;;;;;;10.30;4.70;;;;;;;-148.88;84.83;75602.53;5018934;28;20037;-82
2022/05/26 03:54:30;;;;;;;7.95;5.13;;;;;;;-148.88;85.83;75606.59;5037201;28;20029;-82
2022/05/26 03:56:56;;;;;;;9.90;5.00;;;;;;;-148.88;85.97;75610.66;5019449;28;20030;-83
2022/05/26 03:59:21;;;;;;;8.38;5.88;;;;;;;-148.88;86.57;75624.88;5018654;28;20017;-83
2022/05/26 04:01:53;;;;;;;11.05;5.45;;;;;;;-148.88;87.31;75618.78;5018813;28;20445;-83
2022/05/26 04:04:18;;;;;;;9.80;5.82;;;;;;;-148.88;87.68;75620.81;5037774;28;20025;-81
2022/05/26 04:06:44;;;;;;;10.27;5.63;;;;;;;-148.88;87.58;75622.84;5018973;28;20356;-81
2022/05/26 04:09:14;;;;;;;8.32;5.88;;;;;;;-148.88;89.60;75633.00;5036001;28;20025;-85
2022/05/26 04:11:40;;;;;;;10.15;6.55;;;;;;;-148.88;92.91;75651.28;5018139;28;20033;-89
2022/05/26 04:14:30;;;;;;;9.82;7.25;;;;;;;-148.88;95.71;75691.91;5017442;28;20031;-89
2022/05/26 04:17:07;;;;;;;13.02;7.97;;;;;;;-148.88;97.53;75704.09;5017208;28;20056;-89
2022/05/26 04:19:42;;;;;;;13.40;7.97;;;;;;;-148.88;98.41;75718.31;5018265;28;20083;-89
2022/05/26 04:22:30;;;;;;;13.63;8.43;;;;;;;-148.88;99.30;75712.22;5035390;28;20032;-89
2022/05/26 04:25:02;;;;;;;13.23;7.50;;;;;;;-148.88;99.42;75728.47;5017476;28;20031;-87
2022/05/26 04:27:49;;;;;;;16.27;8.35;;;;;;;-148.88;100.00;75732.53;5017540;28;20022;-89
2022/05/26 04:33:33;;;;;;;12.88;8.27;;;;;;;-148.88;100.00;75740.66;4973262;28;20113;-91
2022/05/26 04:36:05;;;;;;;13.73;8.38;;;;;;;-148.88;100.00;75744.72;5013400;28;20064;-89
2022/05/26 04:38:37;;;;;;;13.35;8.45;;;;;;;-148.88;100.00;75744.72;5035688;28;20017;-89
2022/05/26 04:41:20;;;;;;;13.05;9.57;;;;;;;-148.88;100.00;75730.50;5017928;28;20029;-89
2022/05/26 04:43:48;;;;;;;15.90;8.95;;;;;;;-148.88;100.00;75732.53;5016640;28;20025;-92
2022/05/26 04:46:20;;;;;;;16.00;8.50;;;;;;;-148.88;100.00;75732.53;5017351;28;20029;-88
2022/05/26 04:48:46;;;;;;;17.50;8.80;;;;;;;-148.88;100.00;75732.53;5034959;28;20024;-87
2022/05/26 04:51:22;;;;;;;12.40;8.38;;;;;;;-148.88;100.00;75726.44;5018724;28;20025;-90
2022/05/26 04:53:47;;;;;;;13.02;9.30;;;;;;;-148.88;100.00;75738.63;5017395;28;20116;-89
2022/05/26 04:56:13;;;;;;;13.35;8.55;;;;;;;-148.88;100.00;75744.72;5016982;28;20061;-89
2022/05/26 04:58:38;;;;;;;12.18;8.95;;;;;;;-148.88;100.00;75734.56;5016824;28;20022;-89
2022/05/26 05:01:14;;;;;;;14.07;10.00;;;;;;;-148.88;100.00;75730.50;5034175;28;20108;-88
2022/05/26 05:03:47;;;;;;;13.70;9.63;;;;;;;-148.88;100.00;75724.41;5016507;28;20025;-88
2022/05/26 05:06:20;;;;;;;13.73;9.20;;;;;;;-148.88;100.00;75734.56;5016935;28;20374;-89
2022/05/26 05:08:49;;;;;;;;;;;;;;;-148.88;100.00;75732.53;5034885;28;20253;-89
2022/05/26 05:11:15;;;;;;;14.68;9.45;;;;;;;-148.88;100.00;75728.47;5016498;28;20015;-89
2022/05/26 05:13:40;;;;;;;13.10;8.63;;;;;;;-148.88;99.81;75724.41;5016404;28;20465;-89
2022/05/26 05:16:17;;;;;;;12.90;9.35;;;;;;;-148.88;99.98;75728.47;5034141;28;20441;-89
2022/05/26 05:18:44;;;;;;;12.20;8.85;;;;;;;-148.88;100.00;75728.47;5034779;28;20060;-89
2022/05/26 05:21:14;;;;;;;15.20;9.63;;;;;;;-148.88;100.00;75724.41;5034015;28;20527;-89
2022/05/26 05:23:43;;;;;;;17.98;9.98;;;;;;;-148.88;100.00;75720.34;5034427;28;20021;-88
2022/05/26 05:26:26;;;;;;;13.93;9.10;;;;;;;-148.88;99.82;75712.22;5018569;28;20017;-90
2022/05/26 05:28:59;;;;;;;14.27;9.13;;;;;;;-148.88;98.97;75710.19;5035707;28;20386;-89
2022/05/26 05:31:31;;;;;;;16.90;10.63;;;;;;;-148.88;99.40;75712.22;5017537;28;20083;-87
2022/05/26 05:34:04;;;;;;;15.43;10.38;;;;;;;-148.88;98.96;75712.22;5033789;28;20498;-88
2022/05/26 05:36:33;;;;;;;16.38;9.63;;;;;;;-148.88;99.25;75712.22;5017217;28;20026;-88
2022/05/26 05:39:05;;;;;;;16.30;10.07;;;;;;;-148.88;98.52;75716.28;5016442;28;20022;-88
2022/05/26 05:41:37;;;;;;;16.47;10.90;;;;;;;-148.88;98.31;75716.28;5016740;28;20022;-87
2022/05/26 05:44:06;;;;;;;19.70;11.20;;;;;;;-148.88;99.41;75704.09;5034996;28;20025;-88
2022/05/26 05:46:34;;;;;;;18.48;10.88;;;;;;;-148.88;98.35;75704.09;5016709;28;20021;-87
2022/05/26 05:49:04;;;;;;;16.60;10.32;;;;;;;-148.88;97.85;75710.19;5016228;28;20013;-87
2022/05/26 05:51:35;;;;;;;19.20;11.32;;;;;;;-148.88;97.27;75683.78;5034021;28;20030;-87
2022/05/26 05:54:00;;;;;;;17.25;10.48;;;;;;;-148.88;97.93;75673.63;5024425;22;20431;-77
2022/05/26 05:56:26;;;;;;;16.08;11.50;;;;;;;-148.88;97.90;75683.78;5053113;28;20063;-77
2022/05/26 05:58:52;;;;;;;18.17;11.40;;;;;;;-148.88;97.94;75687.84;5033351;28;20022;-77
2022/05/26 06:01:18;;;;;;;19.75;11.73;;;;;;;-148.88;97.49;75681.75;5034478;28;20465;-77
2022/05/26 06:03:43;;;;;;;19.83;10.88;;;;;;;-148.88;97.37;75675.66;5037355;28;20025;-77
2022/05/26 06:06:08;;;;;;;23.20;11.90;;;;;;;-148.88;97.13;75683.78;5019327;28;20071;-77
2022/05/26 06:08:34;;;;;;;20.08;11.77;;;;;;;-148.88;97.34;75681.75;5036980;28;20072;-77
2022/05/26 06:11:00;;;;;;;21.52;11.75;;;;;;;-148.88;96.57;75669.56;5036917;28;20079;-77
2022/05/26 06:13:25;;;;;;;20.17;11.30;;;;;;;-148.88;95.57;75663.47;5019245;28;20504;-77
2022/05/26 06:15:51;;;;;;;19.42;11.73;;;;;;;-148.88;96.05;75665.50;5036802;28;20037;-76
2022/05/26 06:18:16;;;;;;;22.70;12.00;;;;;;;-148.88;95.01;75655.34;5036701;28;20070;-76
2022/05/26 06:20:43;;;;;;;20.50;11.82;;;;;;;-148.88;95.55;75628.94;5037013;28;20052;-76
2022/05/26 06:23:08;;;;;;;18.10;11.80;;;;;;;-148.88;95.49;75626.91;5036686;28;20029;-76
2022/05/26 06:25:33;;;;;;;19.80;11.98;;;;;;;-148.88;95.02;75637.06;5036669;28;20021;-76
2022/05/26 06:30:42;;;;;;;;;;;;;;;-148.88;94.12;75618.78;5037166;28;20032;-77
2022/05/26 06:38:39;;;;;;;19.25;11.68;;;;;;;-148.88;92.58;75639.09;5036365;28;20043;-76
2022/05/26 06:43:52;;;;;;;20.13;11.23;;;;;;;-148.88;91.97;75655.34;5036694;28;20453;-77
2022/05/26 06:46:18;;;;;;;19.35;11.35;;;;;;;-148.88;92.44;75651.28;5018604;28;20475;-76
2022/05/26 06:48:44;;;;;;;18.80;10.77;;;;;;;-148.88;91.47;75643.16;5036202;28;20045;-76
2022/05/26 06:51:10;;;;;;;19.60;11.90;;;;;;;-148.88;91.90;75637.06;5036718;28;20029;-76
2022/05/26 06:53:35;;;;;;;18.50;11.48;;;;;;;-148.88;91.53;75618.78;5036186;28;20044;-76
2022/05/26 06:56:01;;;;;;;17.08;10.85;;;;;;;-148.88;89.53;75635.03;5036006;28;20029;-76
2022/05/26 06:58:27;;;;;;;19.73;11.57;;;;;;;-148.88;90.23;75635.03;5036250;28;20045;-76
2022/05/26 07:00:53;;;;;;;19.10;11.25;;;;;;;-148.88;87.91;75624.88;5036029;28;20021;-76
2022/05/26 07:03:18;;;;;;;21.67;11.25;;;;;;;-148.88;88.82;75606.59;5036215;28;20029;-76
2022/05/26 07:05:44;;;;;;;14.30;9.68;;;;;;;-148.88;86.30;75602.53;5036239;28;20028;-76
2022/05/26 07:08:09;;;;;;;18.23;9.98;;;;;;;-148.88;86.31;75600.50;5035904;28;20048;-76
2022/05/26 07:10:35;;;;;;;23.58;10.50;;;;;;;-148.88;84.88;75590.34;5036122;28;20052;-76
2022/05/26 07:13:01;;;;;;;20.40;9.52;;;;;;;-148.88;83.33;75590.34;5034524;28;20060;-76
2022/05/26 07:15:27;;;;;;;13.45;8.65;;;;;;;-148.88;81.35;75590.34;5018047;28;20151;-76
2022/05/26 07:17:53;;;;;;;15.85;8.18;;;;;;;-148.88;82.35;75598.47;5017938;28;20026;-76
2022/05/26 07:20:19;;;;;;;14.10;8.23;;;;;;;-148.88;82.44;75604.56;5035559;28;20025;-76
2022/05/26 07:22:44;;;;;;;14.30;7.03;;;;;;;-148.88;80.53;75602.53;5017916;28;20127;-76
2022/05/26 07:25:10;;;;;;;13.25;6.90;;;;;;;-148.88;79.86;75594.44;5035962;28;20029;-77
2022/05/26 07:27:36;;;;;;;10.35;5.90;;;;;;;-148.88;77.67;75578.19;5035478;28;20024;-76
2022/05/26 07:30:04;;;;;;;10.52;5.32;;;;;;;-148.88;76.12;75570.03;5035505;28;20048;-76
2022/05/26 07:32:29;;;;;;;11.88;5.10;;;;;;;-148.88;75.92;75570.03;5035433;28;20029;-76
2022/05/26 07:34:55;;;;;;;8.98;5.60;;;;;;;-148.88;75.07;75561.94;5035413;28;20033;-76
2022/05/26 07:42:49;;;;;;;11.35;5.03;;;;;;;-148.88;77.95;75586.31;5035877;28;20035;-76
2022/05/26 07:45:14;;;;;;;13.85;5.25;;;;;;;-148.88;77.10;75574.13;5035407;28;20394;-76
2022/05/26 07:47:40;;;;;;;11.70;5.75;;;;;;;-148.88;77.56;75543.66;5035152;28;20032;-76
2022/05/26 07:50:09;;;;;;;15.65;6.43;;;;;;;-148.88;77.38;75537.56;5017465;28;20465;-76
2022/05/26 07:52:35;;;;;;;12.73;5.95;;;;;;;-148.88;78.02;75537.56;5017183;28;20048;-76
2022/05/26 07:55:01;;;;;;;13.15;5.97;;;;;;;-148.88;74.83;75543.66;5034986;28;20037;-76
2022/05/26 07:57:28;;;;;;;12.40;5.72;;;;;;;-148.88;76.84;75509.13;5035254;28;20083;-77
2022/05/26 07:59:54;;;;;;;11.82;5.68;;;;;;;-148.88;74.46;75494.91;5034365;28;20021;-75
2022/05/26 08:02:20;;;;;;;12.63;5.13;;;;;;;-148.88;74.98;75486.78;5034692;28;20104;-76
2022/05/26 08:04:45;;;;;;;12.32;5.70;;;;;;;-148.88;73.32;75490.84;5034610;28;20131;-76
2022/05/26 08:07:11;;;;;;;12.70;5.40;;;;;;;-148.88;71.54;75488.81;5034823;28;20021;-76
2022/05/26 08:09:38;;;;;;;12.18;5.68;;;;;;;-148.88;70.28;75501.00;5034682;28;20032;-76
2022/05/26 08:12:08;;;;;;;11.18;5.50;;;;;;;-148.88;69.96;75496.94;5034745;28;20064;-76
2022/05/26 08:14:34;;;;;;;11.25;5.50;;;;;;;-148.88;70.58;75505.06;5034606;28;20117;-76
2022/05/26 08:16:59;;;;;;;14.70;6.05;;;;;;;-148.88;71.63;75501.00;5034560;28;20052;-76
2022/05/26 08:19:25;;;;;;;13.43;5.65;;;;;;;-148.88;72.08;75501.00;5034294;28;20409;-76
2022/05/26 08:21:50;;;;;;;10.27;5.88;;;;;;;-148.88;71.59;75505.06;5016618;28;20033;-76
2022/05/26 08:24:17;;;;;;;13.05;5.60;;;;;;;-148.88;71.78;75509.13;5016080;28;20033;-75
2022/05/26 08:26:42;;;;;;;12.10;5.60;;;;;;;-148.88;70.77;75519.28;5034351;28;20376;-76
2022/05/26 08:29:08;;;;;;;13.43;6.35;;;;;;;-148.88;70.46;75533.50;5034410;28;20536;-76
2022/05/26 08:31:33;;;;;;;9.85;5.15;;;;;;;-148.88;71.20;75519.28;5034380;28;20060;-76
2022/05/26 08:33:58;;;;;;;13.55;5.15;;;;;;;-148.88;71.05;75476.63;5034275;28;20434;-76
2022/05/26 08:36:24;;;;;;;9.30;5.35;;;;;;;-148.88;68.66;75478.66;5016511;28;20049;-76
2022/05/26 08:38:50;;;;;;;12.00;5.18;;;;;;;-148.88;68.43;75482.72;5033991;28;20540;-76
2022/05/26 08:41:26;;;;;;;14.55;5.82;;;;;;;-148.88;68.83;75480.69;5016505;28;20556;-76
2022/05/26 08:44:03;;;;;;;13.68;5.32;;;;;;;-148.88;68.13;75468.50;5034107;28;20029;-77
2022/05/26 08:46:42;;;;;;;13.07;5.63;;;;;;;-148.88;67.67;75460.38;5034238;28;20475;-76
2022/05/26 08:49:07;;;;;;;9.35;4.70;;;;;;;-148.88;66.46;75470.53;5034033;28;20104;-77
2022/05/26 08:52:11;;;;;;;9.73;4.77;;;;;;;-148.88;66.05;75476.63;5034276;28;20112;-77
2022/05/26 08:54:39;;;;;;;9.47;5.07;;;;;;;-148.88;68.58;75387.25;4935765;29;20270;-78
2022/05/26 08:57:10;;;;;;;10.20;4.85;;;;;;;-148.88;64.92;75444.13;4934994;29;20035;-77
2022/05/26 08:59:40;;;;;;;7.97;4.13;;;;;;;-148.88;65.15;75423.81;4986239;28;20505;-77
2022/05/26 09:02:25;;;;;;;8.00;4.50;;;;;;;-148.88;65.41;75415.69;5034025;28;20041;-77
2022/05/26 09:04:52;;;;;;;11.88;4.53;;;;;;;-148.88;65.81;75431.94;5034268;28;20021;-77
2022/05/26 09:12:57;;;;;;;8.93;4.03;;;;;;;-148.88;65.41;75417.72;5034588;28;20032;-78
2022/05/26 09:15:23;;;;;;;11.98;4.20;;;;;;;-148.88;64.72;75395.38;5015947;28;20035;-77
2022/05/26 09:17:49;;;;;;;9.55;4.00;;;;;;;-148.88;64.24;75456.31;5033537;28;20057;-76
2022/05/26 09:20:45;;;;;;;9.40;4.13;;;;;;;-148.88;66.35;75466.47;5033522;28;20080;-77
2022/05/26 09:23:33;;;;;;;13.38;4.32;;;;;;;-148.88;64.61;75498.97;5013611;28;20509;-77
2022/05/26 09:26:02;;;;;;;7.85;4.28;;;;;;;-148.88;66.33;75501.00;5015858;28;20026;-77
2022/05/26 09:28:32;;;;;;;10.38;4.13;;;;;;;-148.88;65.56;75501.00;5033330;28;20497;-78
2022/05/26 09:31:15;;;;;;;10.43;4.55;;;;;;;-148.88;66.44;75521.31;5016165;28;20103;-77
2022/05/26 09:33:41;;;;;;;;;;;;;;;-148.88;67.71;75537.56;5034813;28;20123;-77
2022/05/26 09:36:18;;;;;;;8.10;3.60;;;;;;;-148.88;64.89;75537.56;5033094;28;19953;-78
2022/05/26 09:38:44;;;;;;;10.88;3.80;;;;;;;-148.88;64.79;75521.31;5035428;28;20022;-76
2022/05/26 09:41:13;;;;;;;10.98;3.80;;;;;;;-148.88;65.19;75529.44;5033318;28;20040;-76
2022/05/26 09:43:48;;;;;;;11.35;4.18;;;;;;;-148.88;64.92;75541.63;5033141;28;20605;-76
2022/05/26 09:46:15;;;;;;;10.07;3.65;;;;;;;-148.88;64.91;75480.69;5033144;28;20021;-76
2022/05/26 09:48:44;;;;;;;9.40;3.63;;;;;;;-148.88;63.50;75466.47;5033132;28;20470;-76
2022/05/26 09:51:24;;;;;;;6.85;3.83;;;;;;;-148.88;63.79;75401.47;5033297;28;20056;-76
2022/05/26 09:53:51;;;;;;;7.53;3.75;;;;;;;-148.88;62.71;75395.38;5015262;28;20486;-76
2022/05/26 09:56:54;;;;;;;7.72;4.10;;;;;;;-148.88;62.70;75393.34;5033052;28;20433;-76
2022/05/26 09:59:32;;;;;;;6.38;3.40;;;;;;;-148.88;61.51;75431.94;5029753;28;20541;-76
2022/05/26 10:02:03;;;;;;;8.02;3.50;;;;;;;-148.88;62.48;75383.19;5015395;28;20509;-77
2022/05/26 10:04:43;;;;;;;7.63;3.00;;;;;;;-148.88;59.63;75362.88;5032848;28;20364;-76
2022/05/26 10:07:18;;;;;;;7.65;2.85;;;;;;;-148.88;58.20;75342.56;5033224;28;20029;-76
2022/05/26 10:10:07;;;;;;;7.35;2.50;;;;;;;-148.88;58.51;75316.16;5033089;28;20032;-76
2022/05/26 10:13:09;;;;;;;6.00;2.42;;;;;;;-148.88;56.42;75251.19;5015320;28;20120;-76
2022/05/26 10:15:47;;;;;;;8.80;2.15;;;;;;;-148.88;56.83;75200.41;5033782;28;20021;-76
2022/05/26 10:18:37;;;;;;;10.40;2.65;;;;;;;-148.88;55.33;75200.41;5032901;28;20048;-76
2022/05/26 10:21:29;;;;;;;10.25;3.03;;;;;;;-148.88;55.67;75204.47;5032826;28;20061;-76
2022/05/26 10:24:00;;;;;;;6.60;2.72;;;;;;;-148.88;55.31;75228.84;5033042;28;20491;-76
2022/05/26 10:26:48;;;;;;;8.90;2.90;;;;;;;-148.88;57.75;75243.06;5033658;28;20079;-77
2022/05/26 10:29:50;;;;;;;9.30;2.83;;;;;;;-148.88;56.42;75269.47;5032970;28;20511;-76
2022/05/26 10:32:36;;;;;;;8.73;2.63;;;;;;;-148.88;57.77;75322.25;5032578;28;20506;-76
2022/05/26 10:35:30;;;;;;;4.32;2.40;;;;;;;-148.88;57.29;75318.19;5032695;28;20455;-77
2022/05/26 10:38:26;;;;;;;8.63;2.60;;;;;;;-148.88;56.60;75342.56;5032833;28;20056;-76
2022/05/26 10:41:08;;;;;;;7.07;2.67;;;;;;;-148.88;58.06;75346.63;5032971;28;20029;-76
2022/05/26 10:44:00;;;;;;;10.05;3.30;;;;;;;-148.88;59.18;75261.34;5014997;28;20089;-76
2022/05/26 10:46:28;;;;;;;9.65;3.33;;;;;;;-148.88;59.81;75273.53;5032617;28;20438;-76
2022/05/26 10:48:59;;;;;;;7.78;3.85;;;;;;;-148.88;58.72;75322.25;5036264;28;20101;-77
2022/05/26 10:51:43;;;;;;;8.10;3.63;;;;;;;-148.88;58.70;75306.00;5018671;28;20051;-77
2022/05/26 10:54:15;;;;;;;;;;;;;;;-148.88;60.33;75251.19;5036498;28;20030;-77
2022/05/26 10:56:57;;;;;;;8.00;3.60;;;;;;;-148.88;57.96;75196.34;5018343;28;19913;-76
2022/05/26 10:59:29;;;;;;;7.53;3.50;;;;;;;-148.88;56.60;75194.31;5018400;28;20013;-77
2022/05/26 11:02:13;;;;;;;9.23;3.05;;;;;;;-148.88;55.55;75139.47;5036329;28;20025;-76
2022/05/26 11:04:41;;;;;;;8.18;3.00;;;;;;;-148.88;57.35;75149.63;5036345;28;20080;-77
2022/05/26 11:07:16;;;;;;;7.63;3.00;;;;;;;-148.88;55.73;75180.09;5035968;28;20021;-76
2022/05/26 11:09:55;;;;;;;6.30;2.50;;;;;;;-148.88;56.31;75224.78;5035957;28;20025;-77
2022/05/26 11:12:30;;;;;;;4.05;2.28;;;;;;;-148.88;52.44;75208.53;5035850;28;20029;-76
2022/05/26 11:17:53;;;;;;;4.03;2.22;;;;;;;-148.88;53.29;75167.91;5035912;28;20080;-77
2022/05/26 11:20:22;;;;;;;7.57;2.47;;;;;;;-148.88;54.37;75234.94;5035652;28;20032;-77
2022/05/26 11:22:51;;;;;;;4.32;2.20;;;;;;;-148.88;56.26;75297.88;5035831;28;20494;-76
2022/05/26 11:25:24;;;;;;;5.50;2.25;;;;;;;-148.88;54.19;75297.88;5035595;28;20025;-77
2022/05/26 11:27:58;;;;;;;6.03;1.90;;;;;;;-148.88;54.55;75257.28;5017807;28;20040;-76
2022/05/26 11:36:17;;;;;;;6.68;2.45;;;;;;;-148.88;53.81;75167.91;5035455;28;20032;-77
2022/05/26 11:38:48;;;;;;;6.53;2.45;;;;;;;-148.88;55.57;75165.88;5017496;28;20104;-77
2022/05/26 11:41:36;;;;;;;6.22;2.28;;;;;;;-148.88;52.72;75180.09;5035365;28;20475;-76
2022/05/26 11:44:06;;;;;;;6.88;2.65;;;;;;;-148.88;53.14;75269.47;5035248;28;20037;-76
2022/05/26 11:46:46;;;;;;;4.95;2.20;;;;;;;-148.88;54.07;75257.28;5017400;28;20054;-76
2022/05/26 11:50:00;;;;;;;5.70;2.30;;;;;;;-148.88;52.83;75208.53;5035168;28;20021;-76
2022/05/26 11:52:37;;;;;;;7.75;2.13;;;;;;;-148.88;54.66;75228.84;4965438;28;20041;-76
2022/05/26 11:55:27;;;;;;;10.48;3.05;;;;;;;-148.88;55.38;75261.34;5035071;28;20377;-77
2022/05/26 11:57:54;;;;;;;5.68;2.08;;;;;;;-148.88;54.29;75208.53;5035251;28;20055;-76
2022/05/26 12:00:40;;;;;;;9.10;2.50;;;;;;;-148.88;54.40;75277.59;5016300;28;20426;-76
2022/05/26 12:03:28;;;;;;;7.78;2.78;;;;;;;-148.88;55.77;75261.34;5034932;28;20088;-77
2022/05/26 12:06:14;;;;;;;7.88;3.15;;;;;;;-148.88;55.49;75279.59;5035134;28;20437;-76
2022/05/26 12:08:58;;;;;;;8.82;2.92;;;;;;;-148.88;54.53;75230.88;5016954;28;20440;-76
2022/05/26 12:11:55;;;;;;;8.52;2.78;;;;;;;-148.88;54.88;75273.53;5035098;28;20030;-76
2022/05/26 12:14:23;;;;;;;4.88;2.30;;;;;;;-148.88;55.29;75228.84;5034681;28;20017;-76
2022/05/26 12:16:48;;;;;;;7.25;2.60;;;;;;;-148.88;52.54;75163.84;5016802;28;20111;-76
2022/05/26 12:19:40;;;;;;;7.40;2.20;;;;;;;-148.88;52.32;75143.53;5034748;28;20049;-77
2022/05/26 12:22:31;;;;;;;5.45;2.28;;;;;;;-148.88;51.83;75111.03;5034489;28;20030;-77
2022/05/26 12:24:59;;;;;;;7.25;2.50;;;;;;;-148.88;50.05;75090.72;5022823;28;20041;-77
2022/05/26 12:27:55;;;;;;;6.72;2.17;;;;;;;-148.88;51.60;75072.47;5034467;28;20021;-77